sensor_id;sensor_type;location;lat;lon;timestamp;pressure;altitude;pressure_sealevel;temperature;humidity
43770;BME280;6597;52.218;9.882;2024-02-21T00:02:18;101323.34;;;7.51;100.00
43770;BME280;6597;52.218;9.882;2024-02-21T00:04:45;101324.22;;;7.52;100.00
43770;BME280;6597;52.218;9.882;2024-02-21T00:07:12;101319.84;;;7.54;100.00
43770;BME280;6597;52.218;9.882;2024-02-21T00:09:40;101325.91;;;7.54;100.00
43770;BME280;6597;52.218;9.882;2024-02-21T00:12:07;101318.09;;;7.54;100.00
43770;BME280;6597;52.218;9.882;2024-02-21T00:14:33;101311.97;;;7.55;100.00
43770;BME280;6597;52.218;9.882;2024-02-21T00:17:00;101308.47;;;7.56;100.00
43770;BME280;6597;52.218;9.882;2024-02-21T00:19:26;101311.97;;;7.55;100.00
43770;BME280;6597;52.218;9.882;2024-02-21T00:21:53;101310.22;;;7.56;100.00
43770;BME280;6597;52.218;9.882;2024-02-21T00:24:19;101305.84;;;7.56;100.00
43770;BME280;6597;52.218;9.882;2024-02-21T00:26:47;101305.03;;;7.54;100.00
43770;BME280;6597;52.218;9.882;2024-02-21T00:29:14;101292.91;;;7.48;100.00
43770;BME280;6597;52.218;9.882;2024-02-21T00:31:40;101301.53;;;7.54;100.00
43770;BME280;6597;52.218;9.882;2024-02-21T00:34:07;101281.56;;;7.49;100.00
43770;BME280;6597;52.218;9.882;2024-02-21T00:36:33;101289.34;;;7.54;100.00
43770;BME280;6597;52.218;9.882;2024-02-21T00:39:00;101290.19;;;7.56;100.00
43770;BME280;6597;52.218;9.882;2024-02-21T00:41:27;101290.19;;;7.56;100.00
43770;BME280;6597;52.218;9.882;2024-02-21T00:43:54;101283.22;;;7.55;100.00
43770;BME280;6597;52.218;9.882;2024-02-21T00:46:21;101278.00;;;7.55;100.00
43770;BME280;6597;52.218;9.882;2024-02-21T00:48:48;101278.00;;;7.55;100.00
43770;BME280;6597;52.218;9.882;2024-02-21T00:51:15;101269.34;;;7.53;100.00
43770;BME280;6597;52.218;9.882;2024-02-21T00:53:42;101275.41;;;7.55;100.00
43770;BME280;6597;52.218;9.882;2024-02-21T00:56:09;101268.44;;;7.54;100.00
43770;BME280;6597;52.218;9.882;2024-02-21T00:58:35;101273.63;;;7.57;100.00
43770;BME280;6597;52.218;9.882;2024-02-21T01:01:03;101272.75;;;7.58;100.00
43770;BME280;6597;52.218;9.882;2024-02-21T01:03:30;101277.13;;;7.56;100.00
43770;BME280;6597;52.218;9.882;2024-02-21T01:05:56;101275.41;;;7.55;100.00
43770;BME280;6597;52.218;9.882;2024-02-21T01:08:23;101264.91;;;7.57;100.00
43770;BME280;6597;52.218;9.882;2024-02-21T01:10:49;101258.78;;;7.59;100.00
43770;BME280;6597;52.218;9.882;2024-02-21T01:13:16;101256.19;;;7.58;100.00
43770;BME280;6597;52.218;9.882;2024-02-21T01:15:43;101248.34;;;7.58;100.00
43770;BME280;6597;52.218;9.882;2024-02-21T01:18:10;101231.81;;;7.57;100.00
43770;BME280;6597;52.218;9.882;2024-02-21T01:20:38;101249.19;;;7.60;100.00
43770;BME280;6597;52.218;9.882;2024-02-21T01:23:05;101248.31;;;7.61;100.00
43770;BME280;6597;52.218;9.882;2024-02-21T01:25:31;101245.69;;;7.61;100.00
43770;BME280;6597;52.218;9.882;2024-02-21T01:27:58;101234.44;;;7.57;100.00
43770;BME280;6597;52.218;9.882;2024-02-21T01:30:24;101224.81;;;7.59;100.00
43770;BME280;6597;52.218;9.882;2024-02-21T01:32:51;101229.09;;;7.63;100.00
43770;BME280;6597;52.218;9.882;2024-02-21T01:35:19;101232.56;;;7.65;100.00
43770;BME280;6597;52.218;9.882;2024-02-21T01:37:45;101224.69;;;7.67;100.00
43770;BME280;6597;52.218;9.882;2024-02-21T01:40:12;101217.72;;;7.67;100.00
43770;BME280;6597;52.218;9.882;2024-02-21T01:42:38;101220.28;;;7.70;100.00
43770;BME280;6597;52.218;9.882;2024-02-21T01:45:06;101217.63;;;7.73;100.00
43770;BME280;6597;52.218;9.882;2024-02-21T01:47:33;101189.09;;;7.61;100.00
43770;BME280;6597;52.218;9.882;2024-02-21T01:50:00;101215.00;;;7.73;100.00
43770;BME280;6597;52.218;9.882;2024-02-21T01:52:29;101221.00;;;7.78;100.00
43770;BME280;6597;52.218;9.882;2024-02-21T01:54:56;101217.53;;;7.78;100.00
43770;BME280;6597;52.218;9.882;2024-02-21T01:57:24;101214.91;;;7.78;100.00
43770;BME280;6597;52.218;9.882;2024-02-21T01:59:51;101220.97;;;7.80;100.00
43770;BME280;6597;52.218;9.882;2024-02-21T02:02:18;101215.75;;;7.80;100.00
43770;BME280;6597;52.218;9.882;2024-02-21T02:04:45;101214.91;;;7.81;100.00
43770;BME280;6597;52.218;9.882;2024-02-21T02:07:12;101210.53;;;7.80;100.00
43770;BME280;6597;52.218;9.882;2024-02-21T02:09:40;101204.44;;;7.79;100.00
43770;BME280;6597;52.218;9.882;2024-02-21T02:12:07;101199.22;;;7.81;100.00
43770;BME280;6597;52.218;9.882;2024-02-21T02:14:33;101187.84;;;7.84;100.00
43770;BME280;6597;52.218;9.882;2024-02-21T02:17:00;101199.13;;;7.86;100.00
43770;BME280;6597;52.218;9.882;2024-02-21T02:19:26;101191.28;;;7.87;100.00
43770;BME280;6597;52.218;9.882;2024-02-21T02:22:02;101179.94;;;7.87;100.00
43770;BME280;6597;52.218;9.882;2024-02-21T02:24:34;101178.22;;;7.86;100.00
43770;BME280;6597;52.218;9.882;2024-02-21T02:27:01;101173.03;;;7.84;100.00
43770;BME280;6597;52.218;9.882;2024-02-21T02:29:27;101169.44;;;7.90;100.00
43770;BME280;6597;52.218;9.882;2024-02-21T02:31:54;101177.25;;;7.91;100.00
43770;BME280;6597;52.218;9.882;2024-02-21T02:34:20;101177.31;;;7.88;100.00
43770;BME280;6597;52.218;9.882;2024-02-21T02:36:47;101159.88;;;7.89;100.00
43770;BME280;6597;52.218;9.882;2024-02-21T02:39:14;101156.38;;;7.90;100.00
43770;BME280;6597;52.218;9.882;2024-02-21T02:41:42;101154.63;;;7.90;100.00
43770;BME280;6597;52.218;9.882;2024-02-21T02:44:09;101138.03;;;7.91;100.00
43770;BME280;6597;52.218;9.882;2024-02-21T02:46:35;101135.41;;;7.93;100.00
43770;BME280;6597;52.218;9.882;2024-02-21T02:49:02;101137.28;;;7.86;100.00
43770;BME280;6597;52.218;9.882;2024-02-21T02:51:28;101129.44;;;7.86;100.00
43770;BME280;6597;52.218;9.882;2024-02-21T02:53:55;101148.41;;;7.96;100.00
43770;BME280;6597;52.218;9.882;2024-02-21T02:56:22;101135.28;;;7.99;100.00
43770;BME280;6597;52.218;9.882;2024-02-21T02:58:50;101136.97;;;8.01;100.00
43770;BME280;6597;52.218;9.882;2024-02-21T03:01:16;101123.06;;;7.99;100.00
43770;BME280;6597;52.218;9.882;2024-02-21T03:03:43;101118.69;;;8.01;100.00
43770;BME280;6597;52.218;9.882;2024-02-21T03:06:10;101121.22;;;8.04;100.00
43770;BME280;6597;52.218;9.882;2024-02-21T03:08:37;101127.34;;;8.03;100.00
43770;BME280;6597;52.218;9.882;2024-02-21T03:11:05;101117.75;;;8.04;100.00
43770;BME280;6597;52.218;9.882;2024-02-21T03:13:32;101119.41;;;8.08;100.00
43770;BME280;6597;52.218;9.882;2024-02-21T03:15:59;101104.63;;;8.07;100.00
43770;BME280;6597;52.218;9.882;2024-02-21T03:18:26;101114.22;;;8.06;100.00
43770;BME280;6597;52.218;9.882;2024-02-21T03:20:52;101101.09;;;8.09;100.00
43770;BME280;6597;52.218;9.882;2024-02-21T03:23:19;101097.63;;;8.07;100.00
43770;BME280;6597;52.218;9.882;2024-02-21T03:25:46;101085.41;;;8.09;100.00
43770;BME280;6597;52.218;9.882;2024-02-21T03:28:12;101083.72;;;8.07;100.00
43770;BME280;6597;52.218;9.882;2024-02-21T03:30:39;101064.53;;;8.06;100.00
43770;BME280;6597;52.218;9.882;2024-02-21T03:33:07;101056.66;;;8.08;100.00
43770;BME280;6597;52.218;9.882;2024-02-21T03:35:33;101057.56;;;8.07;100.00
43770;BME280;6597;52.218;9.882;2024-02-21T03:38:00;101045.28;;;8.10;100.00
43770;BME280;6597;52.218;9.882;2024-02-21T03:40:26;101034.84;;;8.09;100.00
43770;BME280;6597;52.218;9.882;2024-02-21T03:42:53;101027.00;;;8.09;99.77
43770;BME280;6597;52.218;9.882;2024-02-21T03:45:19;101020.13;;;8.05;100.00
43770;BME280;6597;52.218;9.882;2024-02-21T03:47:46;101008.84;;;8.03;100.00
43770;BME280;6597;52.218;9.882;2024-02-21T03:50:14;101008.09;;;7.98;100.00
43770;BME280;6597;52.218;9.882;2024-02-21T03:52:41;101006.34;;;7.97;100.00
43770;BME280;6597;52.218;9.882;2024-02-21T03:55:08;101022.16;;;7.92;100.00
43770;BME280;6597;52.218;9.882;2024-02-21T03:57:34;101003.94;;;7.88;100.00
43770;BME280;6597;52.218;9.882;2024-02-21T04:00:01;101000.50;;;7.86;100.00
43770;BME280;6597;52.218;9.882;2024-02-21T04:02:33;100991.75;;;7.87;100.00
43770;BME280;6597;52.218;9.882;2024-02-21T04:04:59;100997.09;;;7.82;100.00
43770;BME280;6597;52.218;9.882;2024-02-21T04:07:27;101001.47;;;7.78;100.00
43770;BME280;6597;52.218;9.882;2024-02-21T04:09:54;101014.66;;;7.74;100.00
43770;BME280;6597;52.218;9.882;2024-02-21T04:12:20;101022.41;;;7.78;100.00
43770;BME280;6597;52.218;9.882;2024-02-21T04:14:47;101025.88;;;7.79;100.00
43770;BME280;6597;52.218;9.882;2024-02-21T04:17:13;101026.63;;;7.86;100.00
43770;BME280;6597;52.218;9.882;2024-02-21T04:19:40;101036.25;;;7.84;100.00
43770;BME280;6597;52.218;9.882;2024-02-21T04:22:06;101034.47;;;7.86;100.00
43770;BME280;6597;52.218;9.882;2024-02-21T04:24:34;101037.09;;;7.86;100.00
43770;BME280;6597;52.218;9.882;2024-02-21T04:27:01;101030.91;;;7.90;100.00
43770;BME280;6597;52.218;9.882;2024-02-21T04:29:27;101037.94;;;7.86;100.00
43770;BME280;6597;52.218;9.882;2024-02-21T04:31:54;101039.50;;;7.95;100.00
43770;BME280;6597;52.218;9.882;2024-02-21T04:34:20;101049.97;;;7.95;100.00
43770;BME280;6597;52.218;9.882;2024-02-21T04:36:47;101038.66;;;7.94;100.00
43770;BME280;6597;52.218;9.882;2024-02-21T04:39:13;101042.94;;;7.98;100.00
43770;BME280;6597;52.218;9.882;2024-02-21T04:41:41;101044.63;;;8.01;100.00
43770;BME280;6597;52.218;9.882;2024-02-21T04:44:08;101042.84;;;8.03;100.00
43770;BME280;6597;52.218;9.882;2024-02-21T04:46:34;101050.59;;;8.06;100.00
43770;BME280;6597;52.218;9.882;2024-02-21T04:49:01;101042.81;;;8.04;100.00
43770;BME280;6597;52.218;9.882;2024-02-21T04:51:27;101051.50;;;8.05;100.00
43770;BME280;6597;52.218;9.882;2024-02-21T04:53:54;101056.69;;;8.06;100.00
43770;BME280;6597;52.218;9.882;2024-02-21T04:56:20;101046.22;;;8.08;100.00
43770;BME280;6597;52.218;9.882;2024-02-21T04:58:48;101034.03;;;8.07;100.00
43770;BME280;6597;52.218;9.882;2024-02-21T05:01:15;101041.81;;;8.10;100.00
43770;BME280;6597;52.218;9.882;2024-02-21T05:03:41;101048.75;;;8.11;100.00
43770;BME280;6597;52.218;9.882;2024-02-21T05:06:08;101051.34;;;8.12;100.00
43770;BME280;6597;52.218;9.882;2024-02-21T05:08:34;101046.16;;;8.11;100.00
43770;BME280;6597;52.218;9.882;2024-02-21T05:11:01;101042.63;;;8.12;100.00
43770;BME280;6597;52.218;9.882;2024-02-21T05:13:29;101041.78;;;8.13;100.00
43770;BME280;6597;52.218;9.882;2024-02-21T05:15:57;101049.59;;;8.15;99.62
43770;BME280;6597;52.218;9.882;2024-02-21T05:18:27;101043.50;;;8.14;99.19
43770;BME280;6597;52.218;9.882;2024-02-21T05:20:53;101040.84;;;8.16;99.64
43770;BME280;6597;52.218;9.882;2024-02-21T05:23:20;101043.50;;;8.14;99.57
43770;BME280;6597;52.218;9.882;2024-02-21T05:25:46;101044.31;;;8.16;99.44
43770;BME280;6597;52.218;9.882;2024-02-21T05:28:13;101039.09;;;8.16;99.72
43770;BME280;6597;52.218;9.882;2024-02-21T05:30:39;101033.88;;;8.16;98.80
43770;BME280;6597;52.218;9.882;2024-02-21T05:33:07;101033.78;;;8.19;99.42
43770;BME280;6597;52.218;9.882;2024-02-21T05:35:34;101025.91;;;8.21;99.34
43770;BME280;6597;52.218;9.882;2024-02-21T05:38:01;101039.03;;;8.19;98.64
43770;BME280;6597;52.218;9.882;2024-02-21T05:40:30;101026.03;;;8.16;98.96
43770;BME280;6597;52.218;9.882;2024-02-21T05:42:57;101032.97;;;8.17;100.00
43770;BME280;6597;52.218;9.882;2024-02-21T05:45:23;101031.28;;;8.15;99.81
43770;BME280;6597;52.218;9.882;2024-02-21T05:47:50;101019.97;;;8.14;99.48
43770;BME280;6597;52.218;9.882;2024-02-21T05:50:18;101019.06;;;8.15;99.41
43770;BME280;6597;52.218;9.882;2024-02-21T05:52:46;101017.38;;;8.11;99.33
43770;BME280;6597;52.218;9.882;2024-02-21T05:55:12;101012.19;;;8.09;100.00
43770;BME280;6597;52.218;9.882;2024-02-21T05:57:39;101017.47;;;8.06;100.00
43770;BME280;6597;52.218;9.882;2024-02-21T06:00:07;101014.84;;;8.08;100.00
43770;BME280;6597;52.218;9.882;2024-02-21T06:02:40;101003.66;;;8.01;100.00
43770;BME280;6597;52.218;9.882;2024-02-21T06:05:07;101014.78;;;8.11;100.00
43770;BME280;6597;52.218;9.882;2024-02-21T06:07:35;101012.22;;;8.08;100.00
43770;BME280;6597;52.218;9.882;2024-02-21T06:10:02;101000.84;;;8.10;99.63
43770;BME280;6597;52.218;9.882;2024-02-21T06:12:28;101002.59;;;8.10;99.53
43770;BME280;6597;52.218;9.882;2024-02-21T06:14:55;101000.00;;;8.08;99.86
43770;BME280;6597;52.218;9.882;2024-02-21T06:17:22;100990.44;;;8.07;99.72
43770;BME280;6597;52.218;9.882;2024-02-21T06:19:48;100991.34;;;8.06;100.00
43770;BME280;6597;52.218;9.882;2024-02-21T06:22:15;100984.41;;;8.04;100.00
43770;BME280;6597;52.218;9.882;2024-02-21T06:24:43;100991.53;;;7.97;100.00
43770;BME280;6597;52.218;9.882;2024-02-21T06:27:11;100994.03;;;8.03;100.00
43770;BME280;6597;52.218;9.882;2024-02-21T06:29:39;100987.09;;;8.01;100.00
43770;BME280;6597;52.218;9.882;2024-02-21T06:32:06;100978.50;;;7.96;100.00
43770;BME280;6597;52.218;9.882;2024-02-21T06:34:33;100978.63;;;7.90;100.00
43770;BME280;6597;52.218;9.882;2024-02-21T06:36:59;100978.66;;;7.88;100.00
43770;BME280;6597;52.218;9.882;2024-02-21T06:39:26;100981.25;;;7.90;100.00
43770;BME280;6597;52.218;9.882;2024-02-21T06:41:55;100988.25;;;7.88;100.00
43770;BME280;6597;52.218;9.882;2024-02-21T06:44:22;100981.19;;;7.93;100.00
43770;BME280;6597;52.218;9.882;2024-02-21T06:46:48;100982.03;;;7.93;100.00
43770;BME280;6597;52.218;9.882;2024-02-21T06:49:15;100974.22;;;7.92;100.00
43770;BME280;6597;52.218;9.882;2024-02-21T06:51:42;100973.38;;;7.91;100.00
43770;BME280;6597;52.218;9.882;2024-02-21T06:54:09;100961.19;;;7.90;100.00
43770;BME280;6597;52.218;9.882;2024-02-21T06:56:36;100949.94;;;7.87;100.00
43770;BME280;6597;52.218;9.882;2024-02-21T06:59:04;100961.84;;;8.00;100.00
43770;BME280;6597;52.218;9.882;2024-02-21T07:01:31;100976.66;;;8.01;100.00
43770;BME280;6597;52.218;9.882;2024-02-21T07:03:57;100964.63;;;7.92;100.00
43770;BME280;6597;52.218;9.882;2024-02-21T07:06:24;100975.91;;;7.94;100.00
43770;BME280;6597;52.218;9.882;2024-02-21T07:08:50;100981.03;;;7.99;100.00
43770;BME280;6597;52.218;9.882;2024-02-21T07:11:17;100977.53;;;8.00;100.00
43770;BME280;6597;52.218;9.882;2024-02-21T07:13:44;100980.09;;;8.03;100.00
43770;BME280;6597;52.218;9.882;2024-02-21T07:16:12;100981.78;;;8.05;100.00
43770;BME280;6597;52.218;9.882;2024-02-21T07:18:38;100976.41;;;8.13;99.79
43770;BME280;6597;52.218;9.882;2024-02-21T07:21:05;100992.09;;;8.13;99.87
43770;BME280;6597;52.218;9.882;2024-02-21T07:23:31;100995.53;;;8.15;100.00
43770;BME280;6597;52.218;9.882;2024-02-21T07:25:58;100985.97;;;8.12;100.00
43770;BME280;6597;52.218;9.882;2024-02-21T07:28:24;100982.38;;;8.18;99.86
43770;BME280;6597;52.218;9.882;2024-02-21T07:30:51;100974.59;;;8.17;99.75
43770;BME280;6597;52.218;9.882;2024-02-21T07:33:19;100977.13;;;8.20;98.96
43770;BME280;6597;52.218;9.882;2024-02-21T07:35:48;100971.09;;;8.16;99.71
43770;BME280;6597;52.218;9.882;2024-02-21T07:38:14;100976.28;;;8.19;98.84
43770;BME280;6597;52.218;9.882;2024-02-21T07:40:44;100976.22;;;8.21;99.09
43770;BME280;6597;52.218;9.882;2024-02-21T07:43:12;100976.13;;;8.25;99.94
43770;BME280;6597;52.218;9.882;2024-02-21T07:45:39;100989.22;;;8.25;99.18
43770;BME280;6597;52.218;9.882;2024-02-21T07:48:06;100975.31;;;8.23;99.19
43770;BME280;6597;52.218;9.882;2024-02-21T07:50:34;100986.59;;;8.25;99.03
43770;BME280;6597;52.218;9.882;2024-02-21T07:53:00;100979.56;;;8.27;98.99
43770;BME280;6597;52.218;9.882;2024-02-21T07:55:27;100987.41;;;8.27;98.80
43770;BME280;6597;52.218;9.882;2024-02-21T07:57:55;100991.81;;;8.25;99.54
43770;BME280;6597;52.218;9.882;2024-02-21T08:00:22;100984.88;;;8.24;99.20
43770;BME280;6597;52.218;9.882;2024-02-21T08:02:49;100972.66;;;8.25;99.06
43770;BME280;6597;52.218;9.882;2024-02-21T08:05:16;100972.53;;;8.29;99.32
43770;BME280;6597;52.218;9.882;2024-02-21T08:07:44;100982.06;;;8.32;99.83
43770;BME280;6597;52.218;9.882;2024-02-21T08:10:10;100975.22;;;8.26;99.18
43770;BME280;6597;52.218;9.882;2024-02-21T08:12:37;100982.06;;;8.33;99.65
43770;BME280;6597;52.218;9.882;2024-02-21T08:15:05;100979.47;;;8.32;99.89
43770;BME280;6597;52.218;9.882;2024-02-21T08:17:36;100968.22;;;8.28;99.08
43770;BME280;6597;52.218;9.882;2024-02-21T08:20:03;100975.88;;;8.37;99.54
43770;BME280;6597;52.218;9.882;2024-02-21T08:22:29;100984.56;;;8.39;100.00
43770;BME280;6597;52.218;9.882;2024-02-21T08:24:58;100984.44;;;8.46;99.85
43770;BME280;6597;52.218;9.882;2024-02-21T08:27:24;100974.69;;;8.52;99.74
43770;BME280;6597;52.218;9.882;2024-02-21T08:29:51;100971.97;;;8.57;98.93
43770;BME280;6597;52.218;9.882;2024-02-21T08:32:17;100975.41;;;8.59;98.35
43770;BME280;6597;52.218;9.882;2024-02-21T08:34:44;100971.78;;;8.64;98.50
43770;BME280;6597;52.218;9.882;2024-02-21T08:37:10;100974.31;;;8.67;97.65
43770;BME280;6597;52.218;9.882;2024-02-21T08:39:37;100969.00;;;8.70;96.74
43770;BME280;6597;52.218;9.882;2024-02-21T08:42:08;100949.19;;;8.60;96.71
43770;BME280;6597;52.218;9.882;2024-02-21T08:44:34;100968.75;;;8.81;95.98
43770;BME280;6597;52.218;9.882;2024-02-21T08:47:01;100965.00;;;8.91;96.01
43770;BME280;6597;52.218;9.882;2024-02-21T08:49:29;100959.63;;;8.97;93.73
43770;BME280;6597;52.218;9.882;2024-02-21T08:51:56;100952.50;;;9.02;93.80
43770;BME280;6597;52.218;9.882;2024-02-21T08:54:23;100953.03;;;9.17;93.94
43770;BME280;6597;52.218;9.882;2024-02-21T08:56:49;100945.72;;;9.28;93.13
43770;BME280;6597;52.218;9.882;2024-02-21T08:59:17;100936.72;;;9.38;90.75
43770;BME280;6597;52.218;9.882;2024-02-21T09:01:44;100940.06;;;9.45;89.49
43770;BME280;6597;52.218;9.882;2024-02-21T09:04:10;100946.06;;;9.48;88.96
43770;BME280;6597;52.218;9.882;2024-02-21T09:06:37;100937.47;;;9.43;87.56
43770;BME280;6597;52.218;9.882;2024-02-21T09:09:07;100939.28;;;9.40;87.30
43770;BME280;6597;52.218;9.882;2024-02-21T09:11:33;100935.91;;;9.36;88.31
43770;BME280;6597;52.218;9.882;2024-02-21T09:14:00;100940.09;;;9.43;87.61
43770;BME280;6597;52.218;9.882;2024-02-21T09:16:30;100937.22;;;9.52;86.51
43770;BME280;6597;52.218;9.882;2024-02-21T09:18:57;100932.97;;;9.48;86.08
43770;BME280;6597;52.218;9.882;2024-02-21T09:21:23;100940.09;;;9.42;84.00
43770;BME280;6597;52.218;9.882;2024-02-21T09:23:50;100946.19;;;9.44;83.96
43770;BME280;6597;52.218;9.882;2024-02-21T09:26:17;100939.84;;;9.52;82.43
43770;BME280;6597;52.218;9.882;2024-02-21T09:28:43;100939.09;;;9.47;82.59
43770;BME280;6597;52.218;9.882;2024-02-21T09:31:10;100933.06;;;9.45;81.84
43770;BME280;6597;52.218;9.882;2024-02-21T09:33:38;100932.06;;;9.49;81.14
43770;BME280;6597;52.218;9.882;2024-02-21T09:36:06;100931.84;;;9.57;82.48
43770;BME280;6597;52.218;9.882;2024-02-21T09:38:32;100932.56;;;9.62;81.91
43770;BME280;6597;52.218;9.882;2024-02-21T09:41:00;100931.75;;;9.60;80.59
43770;BME280;6597;52.218;9.882;2024-02-21T09:43:30;100926.38;;;9.64;80.03
43770;BME280;6597;52.218;9.882;2024-02-21T09:45:59;100922.50;;;9.78;79.81
43770;BME280;6597;52.218;9.882;2024-02-21T09:48:34;100913.78;;;9.77;78.35
43770;BME280;6597;52.218;9.882;2024-02-21T09:51:07;100919.66;;;9.85;78.56
43770;BME280;6597;52.218;9.882;2024-02-21T09:53:37;100914.19;;;9.93;78.87
43770;BME280;6597;52.218;9.882;2024-02-21T09:56:05;100921.00;;;9.98;77.78
43770;BME280;6597;52.218;9.882;2024-02-21T09:58:34;100920.81;;;10.05;77.90
43770;BME280;6597;52.218;9.882;2024-02-21T10:01:00;100924.94;;;10.13;76.77
43770;BME280;6597;52.218;9.882;2024-02-21T10:03:27;100917.72;;;10.21;76.61
43770;BME280;6597;52.218;9.882;2024-02-21T10:05:53;100910.25;;;10.36;76.50
43770;BME280;6597;52.218;9.882;2024-02-21T10:08:21;100905.81;;;10.38;76.73
43770;BME280;6597;52.218;9.882;2024-02-21T10:10:48;100911.59;;;10.49;75.63
43770;BME280;6597;52.218;9.882;2024-02-21T10:13:25;100900.16;;;10.51;74.95
43770;BME280;6597;52.218;9.882;2024-02-21T10:16:03;100910.84;;;10.45;74.19
43770;BME280;6597;52.218;9.882;2024-02-21T10:18:30;100895.72;;;10.53;74.47
43770;BME280;6597;52.218;9.882;2024-02-21T10:21:03;100898.63;;;10.71;73.31
43770;BME280;6597;52.218;9.882;2024-02-21T10:23:40;100890.69;;;10.72;73.12
43770;BME280;6597;52.218;9.882;2024-02-21T10:26:07;100887.56;;;10.61;71.72
43770;BME280;6597;52.218;9.882;2024-02-21T10:28:34;100881.03;;;10.74;71.67
43770;BME280;6597;52.218;9.882;2024-02-21T10:31:00;100874.81;;;10.77;70.68
43770;BME280;6597;52.218;9.882;2024-02-21T10:33:27;100862.28;;;11.10;70.29
43770;BME280;6597;52.218;9.882;2024-02-21T10:36:06;100866.50;;;11.37;69.36
43770;BME280;6597;52.218;9.882;2024-02-21T10:38:34;100860.94;;;11.46;69.19
43770;BME280;6597;52.218;9.882;2024-02-21T10:41:02;100857.41;;;11.71;67.32
43770;BME280;6597;52.218;9.882;2024-02-21T10:43:33;100852.03;;;11.74;66.70
43770;BME280;6597;52.218;9.882;2024-02-21T10:46:05;100846.13;;;11.91;67.23
43770;BME280;6597;52.218;9.882;2024-02-21T10:48:42;100841.72;;;11.91;66.64
43770;BME280;6597;52.218;9.882;2024-02-21T10:51:15;100837.81;;;11.79;66.19
43770;BME280;6597;52.218;9.882;2024-02-21T10:53:51;100830.56;;;11.61;66.37
43770;BME280;6597;52.218;9.882;2024-02-21T10:56:28;100842.00;;;11.60;65.99
43770;BME280;6597;52.218;9.882;2024-02-21T10:58:57;100829.34;;;11.48;67.02
43770;BME280;6597;52.218;9.882;2024-02-21T11:01:24;100806.81;;;11.17;65.90
43770;BME280;6597;52.218;9.882;2024-02-21T11:03:53;100814.25;;;11.30;67.53
43770;BME280;6597;52.218;9.882;2024-02-21T11:06:21;100808.25;;;11.26;67.18
43770;BME280;6597;52.218;9.882;2024-02-21T11:09:02;100804.88;;;11.22;65.96
43770;BME280;6597;52.218;9.882;2024-02-21T11:11:32;100803.16;;;11.45;66.07
43770;BME280;6597;52.218;9.882;2024-02-21T11:14:04;100798.66;;;11.48;64.95
43770;BME280;6597;52.218;9.882;2024-02-21T11:16:35;100790.22;;;11.40;65.15
43770;BME280;6597;52.218;9.882;2024-02-21T11:19:04;100796.31;;;11.17;65.11
43770;BME280;6597;52.218;9.882;2024-02-21T11:21:33;100788.00;;;11.05;66.36
43770;BME280;6597;52.218;9.882;2024-02-21T11:24:01;100775.91;;;11.01;67.20
43770;BME280;6597;52.218;9.882;2024-02-21T11:26:29;100762.31;;;10.89;66.99
43770;BME280;6597;52.218;9.882;2024-02-21T11:28:57;100740.41;;;10.66;65.02
43770;BME280;6597;52.218;9.882;2024-02-21T11:31:25;100765.16;;;10.83;66.89
43770;BME280;6597;52.218;9.882;2024-02-21T11:33:53;100772.41;;;10.77;67.38
43770;BME280;6597;52.218;9.882;2024-02-21T11:36:24;100761.16;;;10.73;67.64
43770;BME280;6597;52.218;9.882;2024-02-21T11:38:51;100753.38;;;10.70;66.26
43770;BME280;6597;52.218;9.882;2024-02-21T11:41:20;100757.13;;;10.88;67.30
43770;BME280;6597;52.218;9.882;2024-02-21T11:43:48;100755.69;;;11.03;66.87
43770;BME280;6597;52.218;9.882;2024-02-21T11:46:15;100749.44;;;11.07;66.17
43770;BME280;6597;52.218;9.882;2024-02-21T11:48:42;100735.59;;;11.02;65.39
43770;BME280;6597;52.218;9.882;2024-02-21T11:51:10;100738.84;;;10.85;64.29
43770;BME280;6597;52.218;9.882;2024-02-21T11:53:37;100740.63;;;10.84;64.90
43770;BME280;6597;52.218;9.882;2024-02-21T11:56:04;100738.91;;;10.83;65.35
43770;BME280;6597;52.218;9.882;2024-02-21T11:58:32;100726.44;;;10.88;66.29
43770;BME280;6597;52.218;9.882;2024-02-21T12:00:59;100719.63;;;11.08;65.27
43770;BME280;6597;52.218;9.882;2024-02-21T12:03:28;100730.69;;;11.16;65.35
43770;BME280;6597;52.218;9.882;2024-02-21T12:05:55;100707.59;;;11.24;64.54
43770;BME280;6597;52.218;9.882;2024-02-21T12:08:24;100699.28;;;11.35;64.24
43770;BME280;6597;52.218;9.882;2024-02-21T12:10:50;100697.78;;;11.51;63.88
43770;BME280;6597;52.218;9.882;2024-02-21T12:13:17;100693.66;;;11.66;64.00
43770;BME280;6597;52.218;9.882;2024-02-21T12:15:48;100666.22;;;11.73;63.91
43770;BME280;6597;52.218;9.882;2024-02-21T12:18:15;100670.63;;;11.72;62.55
43770;BME280;6597;52.218;9.882;2024-02-21T12:20:42;100668.00;;;11.50;62.47
43770;BME280;6597;52.218;9.882;2024-02-21T12:23:10;100677.75;;;11.69;63.17
43770;BME280;6597;52.218;9.882;2024-02-21T12:25:36;100677.75;;;11.69;63.14
43770;BME280;6597;52.218;9.882;2024-02-21T12:28:05;100651.41;;;11.70;63.14
43770;BME280;6597;52.218;9.882;2024-02-21T12:30:32;100661.53;;;11.81;62.04
43770;BME280;6597;52.218;9.882;2024-02-21T12:33:02;100656.19;;;12.03;64.46
43770;BME280;6597;52.218;9.882;2024-02-21T12:35:29;100641.66;;;11.94;62.48
43770;BME280;6597;52.218;9.882;2024-02-21T12:37:56;100654.97;;;11.91;62.46
43770;BME280;6597;52.218;9.882;2024-02-21T12:40:23;100651.06;;;12.00;62.74
43770;BME280;6597;52.218;9.882;2024-02-21T12:42:50;100649.50;;;11.96;62.49
43770;BME280;6597;52.218;9.882;2024-02-21T12:45:18;100656.00;;;11.87;61.87
43770;BME280;6597;52.218;9.882;2024-02-21T12:47:44;100653.78;;;11.98;63.74
43770;BME280;6597;52.218;9.882;2024-02-21T12:50:12;100642.59;;;11.93;61.72
43770;BME280;6597;52.218;9.882;2024-02-21T12:52:40;100649.91;;;11.87;62.85
43770;BME280;6597;52.218;9.882;2024-02-21T12:55:07;100645.75;;;11.81;62.98
43770;BME280;6597;52.218;9.882;2024-02-21T12:57:36;100644.44;;;11.91;63.01
43770;BME280;6597;52.218;9.882;2024-02-21T13:00:03;100637.84;;;12.01;63.06
43770;BME280;6597;52.218;9.882;2024-02-21T13:02:33;100635.78;;;12.09;62.78
43770;BME280;6597;52.218;9.882;2024-02-21T13:05:00;100644.19;;;12.18;63.05